sensor_id;sensor_type;location;lat;lon;timestamp;P1;durP1;ratioP1;P2;durP2;ratioP2
17818;SDS011;9034;50.284;19.310;2023-03-19T00:00:07;56.63;;;26.90;;
17818;SDS011;9034;50.284;19.310;2023-03-19T00:01:11;69.18;;;28.10;;
17818;SDS011;9034;50.284;19.310;2023-03-19T00:02:15;66.28;;;29.13;;
17818;SDS011;9034;50.284;19.310;2023-03-19T00:03:18;50.55;;;24.20;;
17818;SDS011;9034;50.284;19.310;2023-03-19T00:04:20;61.45;;;26.95;;
17818;SDS011;9034;50.284;19.310;2023-03-19T00:05:24;61.53;;;27.30;;
17818;SDS011;9034;50.284;19.310;2023-03-19T00:06:26;53.70;;;24.55;;
17818;SDS011;9034;50.284;19.310;2023-03-19T00:07:29;55.17;;;24.45;;
17818;SDS011;9034;50.284;19.310;2023-03-19T00:08:31;55.42;;;24.10;;
17818;SDS011;9034;50.284;19.310;2023-03-19T00:09:34;53.97;;;24.58;;
17818;SDS011;9034;50.284;19.310;2023-03-19T00:10:37;52.60;;;23.55;;
17818;SDS011;9034;50.284;19.310;2023-03-19T00:11:40;52.17;;;23.77;;
17818;SDS011;9034;50.284;19.310;2023-03-19T00:12:43;48.05;;;21.33;;
17818;SDS011;9034;50.284;19.310;2023-03-19T00:13:46;46.13;;;21.85;;
17818;SDS011;9034;50.284;19.310;2023-03-19T00:14:48;42.38;;;21.58;;
17818;SDS011;9034;50.284;19.310;2023-03-19T00:15:51;47.30;;;21.25;;
17818;SDS011;9034;50.284;19.310;2023-03-19T00:16:53;45.70;;;22.70;;
17818;SDS011;9034;50.284;19.310;2023-03-19T00:17:58;42.03;;;21.42;;
17818;SDS011;9034;50.284;19.310;2023-03-19T00:18:59;43.80;;;21.90;;
17818;SDS011;9034;50.284;19.310;2023-03-19T00:20:02;43.85;;;21.63;;
17818;SDS011;9034;50.284;19.310;2023-03-19T00:21:06;50.28;;;21.55;;
17818;SDS011;9034;50.284;19.310;2023-03-19T00:22:08;47.47;;;20.80;;
17818;SDS011;9034;50.284;19.310;2023-03-19T00:23:11;48.15;;;21.80;;
17818;SDS011;9034;50.284;19.310;2023-03-19T00:24:13;40.10;;;19.25;;
17818;SDS011;9034;50.284;19.310;2023-03-19T00:25:17;42.70;;;20.77;;
17818;SDS011;9034;50.284;19.310;2023-03-19T00:26:19;46.67;;;20.20;;
17818;SDS011;9034;50.284;19.310;2023-03-19T00:27:24;40.30;;;20.95;;
17818;SDS011;9034;50.284;19.310;2023-03-19T00:28:26;42.30;;;21.75;;
17818;SDS011;9034;50.284;19.310;2023-03-19T00:29:29;41.70;;;20.63;;
17818;SDS011;9034;50.284;19.310;2023-03-19T00:30:31;50.92;;;22.67;;
17818;SDS011;9034;50.284;19.310;2023-03-19T00:31:34;45.33;;;22.30;;
17818;SDS011;9034;50.284;19.310;2023-03-19T00:32:36;47.58;;;22.38;;
17818;SDS011;9034;50.284;19.310;2023-03-19T00:33:42;47.67;;;23.77;;
17818;SDS011;9034;50.284;19.310;2023-03-19T00:34:44;50.83;;;24.77;;
17818;SDS011;9034;50.284;19.310;2023-03-19T00:35:48;78.30;;;33.70;;
17818;SDS011;9034;50.284;19.310;2023-03-19T00:36:50;70.63;;;29.88;;
17818;SDS011;9034;50.284;19.310;2023-03-19T00:37:53;63.15;;;29.00;;
17818;SDS011;9034;50.284;19.310;2023-03-19T00:38:55;54.35;;;24.83;;
17818;SDS011;9034;50.284;19.310;2023-03-19T00:39:58;54.35;;;29.70;;
17818;SDS011;9034;50.284;19.310;2023-03-19T00:41:00;54.30;;;26.52;;
17818;SDS011;9034;50.284;19.310;2023-03-19T00:42:04;52.63;;;25.05;;
17818;SDS011;9034;50.284;19.310;2023-03-19T00:43:07;52.03;;;23.27;;
17818;SDS011;9034;50.284;19.310;2023-03-19T00:44:09;41.88;;;20.70;;
17818;SDS011;9034;50.284;19.310;2023-03-19T00:45:12;43.75;;;20.52;;
17818;SDS011;9034;50.284;19.310;2023-03-19T00:46:14;45.78;;;20.90;;
17818;SDS011;9034;50.284;19.310;2023-03-19T00:47:17;48.40;;;22.73;;
17818;SDS011;9034;50.284;19.310;2023-03-19T00:48:19;46.47;;;21.35;;
17818;SDS011;9034;50.284;19.310;2023-03-19T00:49:24;49.95;;;24.08;;
17818;SDS011;9034;50.284;19.310;2023-03-19T00:50:26;56.28;;;26.27;;
17818;SDS011;9034;50.284;19.310;2023-03-19T00:51:29;60.90;;;25.20;;
17818;SDS011;9034;50.284;19.310;2023-03-19T00:52:30;49.50;;;23.75;;
17818;SDS011;9034;50.284;19.310;2023-03-19T00:53:35;59.90;;;28.20;;
17818;SDS011;9034;50.284;19.310;2023-03-19T00:54:37;54.08;;;25.55;;
17818;SDS011;9034;50.284;19.310;2023-03-19T00:55:41;61.60;;;26.52;;
17818;SDS011;9034;50.284;19.310;2023-03-19T00:56:43;63.03;;;27.30;;
17818;SDS011;9034;50.284;19.310;2023-03-19T00:57:46;56.17;;;26.40;;
17818;SDS011;9034;50.284;19.310;2023-03-19T00:58:47;58.15;;;25.88;;
17818;SDS011;9034;50.284;19.310;2023-03-19T00:59:50;54.25;;;25.70;;
17818;SDS011;9034;50.284;19.310;2023-03-19T01:00:53;72.40;;;29.90;;
17818;SDS011;9034;50.284;19.310;2023-03-19T01:01:56;82.45;;;35.08;;
17818;SDS011;9034;50.284;19.310;2023-03-19T01:02:59;75.47;;;32.88;;
17818;SDS011;9034;50.284;19.310;2023-03-19T01:04:03;66.35;;;31.15;;
17818;SDS011;9034;50.284;19.310;2023-03-19T01:05:08;58.13;;;26.13;;
17818;SDS011;9034;50.284;19.310;2023-03-19T01:06:10;66.55;;;28.70;;
17818;SDS011;9034;50.284;19.310;2023-03-19T01:07:13;67.18;;;30.95;;
17818;SDS011;9034;50.284;19.310;2023-03-19T01:08:16;75.57;;;34.08;;
17818;SDS011;9034;50.284;19.310;2023-03-19T01:09:19;66.38;;;30.73;;
17818;SDS011;9034;50.284;19.310;2023-03-19T01:10:23;74.90;;;33.40;;
17818;SDS011;9034;50.284;19.310;2023-03-19T01:11:26;73.32;;;34.10;;
17818;SDS011;9034;50.284;19.310;2023-03-19T01:12:28;65.63;;;30.50;;
17818;SDS011;9034;50.284;19.310;2023-03-19T01:13:30;64.55;;;29.33;;
17818;SDS011;9034;50.284;19.310;2023-03-19T01:14:33;62.78;;;30.98;;
17818;SDS011;9034;50.284;19.310;2023-03-19T01:15:37;72.45;;;31.30;;
17818;SDS011;9034;50.284;19.310;2023-03-19T01:16:40;71.72;;;31.15;;
17818;SDS011;9034;50.284;19.310;2023-03-19T01:17:43;75.47;;;32.20;;
17818;SDS011;9034;50.284;19.310;2023-03-19T01:18:45;79.47;;;33.72;;
17818;SDS011;9034;50.284;19.310;2023-03-19T01:19:48;69.47;;;31.70;;
17818;SDS011;9034;50.284;19.310;2023-03-19T01:20:51;67.07;;;30.98;;
17818;SDS011;9034;50.284;19.310;2023-03-19T01:21:54;71.55;;;32.28;;
17818;SDS011;9034;50.284;19.310;2023-03-19T01:22:57;59.58;;;27.63;;
17818;SDS011;9034;50.284;19.310;2023-03-19T01:24:00;76.25;;;32.70;;
17818;SDS011;9034;50.284;19.310;2023-03-19T01:25:03;70.47;;;32.40;;
17818;SDS011;9034;50.284;19.310;2023-03-19T01:26:06;67.82;;;32.80;;
17818;SDS011;9034;50.284;19.310;2023-03-19T01:27:09;73.03;;;33.95;;
17818;SDS011;9034;50.284;19.310;2023-03-19T01:28:12;72.35;;;33.88;;
17818;SDS011;9034;50.284;19.310;2023-03-19T01:29:14;67.82;;;32.20;;
17818;SDS011;9034;50.284;19.310;2023-03-19T01:30:17;87.28;;;36.10;;
17818;SDS011;9034;50.284;19.310;2023-03-19T01:31:43;80.72;;;33.42;;
17818;SDS011;9034;50.284;19.310;2023-03-19T01:33:04;72.80;;;33.25;;
17818;SDS011;9034;50.284;19.310;2023-03-19T01:34:15;98.93;;;43.30;;
17818;SDS011;9034;50.284;19.310;2023-03-19T01:35:24;85.50;;;38.30;;
17818;SDS011;9034;50.284;19.310;2023-03-19T01:36:27;80.47;;;36.40;;
17818;SDS011;9034;50.284;19.310;2023-03-19T01:37:34;77.80;;;34.78;;
17818;SDS011;9034;50.284;19.310;2023-03-19T01:38:37;91.75;;;40.22;;
17818;SDS011;9034;50.284;19.310;2023-03-19T01:39:48;75.30;;;35.05;;
17818;SDS011;9034;50.284;19.310;2023-03-19T01:40:50;74.00;;;33.78;;
17818;SDS011;9034;50.284;19.310;2023-03-19T01:41:53;78.07;;;34.53;;
17818;SDS011;9034;50.284;19.310;2023-03-19T01:43:12;68.05;;;34.00;;
17818;SDS011;9034;50.284;19.310;2023-03-19T01:44:39;69.78;;;33.33;;
17818;SDS011;9034;50.284;19.310;2023-03-19T01:45:59;73.38;;;34.70;;
17818;SDS011;9034;50.284;19.310;2023-03-19T01:47:23;64.13;;;30.67;;
17818;SDS011;9034;50.284;19.310;2023-03-19T01:48:43;63.63;;;29.17;;
17818;SDS011;9034;50.284;19.310;2023-03-19T01:49:51;66.47;;;32.25;;
17818;SDS011;9034;50.284;19.310;2023-03-19T01:50:55;61.08;;;29.35;;
17818;SDS011;9034;50.284;19.310;2023-03-19T01:52:20;63.15;;;29.27;;
17818;SDS011;9034;50.284;19.310;2023-03-19T01:53:45;66.97;;;28.98;;
17818;SDS011;9034;50.284;19.310;2023-03-19T01:55:02;58.25;;;27.83;;
17818;SDS011;9034;50.284;19.310;2023-03-19T01:56:20;64.40;;;30.27;;
17818;SDS011;9034;50.284;19.310;2023-03-19T01:57:30;64.65;;;30.85;;
17818;SDS011;9034;50.284;19.310;2023-03-19T01:58:46;57.65;;;29.08;;
17818;SDS011;9034;50.284;19.310;2023-03-19T02:00:10;56.63;;;27.88;;
17818;SDS011;9034;50.284;19.310;2023-03-19T02:01:17;68.38;;;32.15;;
17818;SDS011;9034;50.284;19.310;2023-03-19T02:02:23;60.50;;;29.00;;
17818;SDS011;9034;50.284;19.310;2023-03-19T02:03:30;74.60;;;32.85;;
17818;SDS011;9034;50.284;19.310;2023-03-19T02:04:40;60.08;;;29.60;;
17818;SDS011;9034;50.284;19.310;2023-03-19T02:05:45;59.10;;;30.90;;
17818;SDS011;9034;50.284;19.310;2023-03-19T02:06:48;67.82;;;31.88;;
17818;SDS011;9034;50.284;19.310;2023-03-19T02:07:53;65.32;;;31.00;;
17818;SDS011;9034;50.284;19.310;2023-03-19T02:08:57;70.68;;;31.10;;
17818;SDS011;9034;50.284;19.310;2023-03-19T02:10:01;72.55;;;31.48;;
17818;SDS011;9034;50.284;19.310;2023-03-19T02:11:05;64.93;;;31.42;;
17818;SDS011;9034;50.284;19.310;2023-03-19T02:12:08;63.47;;;30.80;;
17818;SDS011;9034;50.284;19.310;2023-03-19T02:13:11;58.78;;;29.92;;
17818;SDS011;9034;50.284;19.310;2023-03-19T02:14:14;66.50;;;29.80;;
17818;SDS011;9034;50.284;19.310;2023-03-19T02:15:16;70.55;;;31.15;;
17818;SDS011;9034;50.284;19.310;2023-03-19T02:16:19;72.13;;;32.50;;
17818;SDS011;9034;50.284;19.310;2023-03-19T02:17:24;58.78;;;30.50;;
17818;SDS011;9034;50.284;19.310;2023-03-19T02:18:27;58.10;;;28.45;;
17818;SDS011;9034;50.284;19.310;2023-03-19T02:19:30;61.15;;;29.48;;
17818;SDS011;9034;50.284;19.310;2023-03-19T02:20:39;61.08;;;28.85;;
17818;SDS011;9034;50.284;19.310;2023-03-19T02:21:48;62.45;;;30.67;;
17818;SDS011;9034;50.284;19.310;2023-03-19T02:22:59;62.05;;;29.63;;
17818;SDS011;9034;50.284;19.310;2023-03-19T02:24:08;66.93;;;30.58;;
17818;SDS011;9034;50.284;19.310;2023-03-19T02:25:24;58.75;;;28.30;;
17818;SDS011;9034;50.284;19.310;2023-03-19T02:26:31;70.22;;;31.02;;
17818;SDS011;9034;50.284;19.310;2023-03-19T02:27:36;62.28;;;28.90;;
17818;SDS011;9034;50.284;19.310;2023-03-19T02:28:40;66.30;;;30.00;;
17818;SDS011;9034;50.284;19.310;2023-03-19T02:29:44;62.25;;;30.85;;
17818;SDS011;9034;50.284;19.310;2023-03-19T02:30:50;62.63;;;30.50;;
17818;SDS011;9034;50.284;19.310;2023-03-19T02:31:52;62.83;;;29.88;;
17818;SDS011;9034;50.284;19.310;2023-03-19T02:32:55;56.20;;;29.15;;
17818;SDS011;9034;50.284;19.310;2023-03-19T02:33:58;55.72;;;28.77;;
17818;SDS011;9034;50.284;19.310;2023-03-19T02:35:01;66.30;;;29.35;;
17818;SDS011;9034;50.284;19.310;2023-03-19T02:36:04;59.50;;;28.98;;
17818;SDS011;9034;50.284;19.310;2023-03-19T02:37:10;62.13;;;30.85;;
17818;SDS011;9034;50.284;19.310;2023-03-19T02:38:15;61.28;;;29.52;;
17818;SDS011;9034;50.284;19.310;2023-03-19T02:39:19;67.82;;;30.50;;
17818;SDS011;9034;50.284;19.310;2023-03-19T02:40:25;61.97;;;28.00;;
17818;SDS011;9034;50.284;19.310;2023-03-19T02:41:28;58.78;;;28.10;;
17818;SDS011;9034;50.284;19.310;2023-03-19T02:42:33;56.10;;;27.48;;
17818;SDS011;9034;50.284;19.310;2023-03-19T02:43:36;61.15;;;28.75;;
17818;SDS011;9034;50.284;19.310;2023-03-19T02:44:39;61.80;;;29.45;;
17818;SDS011;9034;50.284;19.310;2023-03-19T02:45:42;66.63;;;28.92;;
17818;SDS011;9034;50.284;19.310;2023-03-19T02:46:45;62.42;;;28.73;;
17818;SDS011;9034;50.284;19.310;2023-03-19T02:47:47;59.00;;;28.40;;
17818;SDS011;9034;50.284;19.310;2023-03-19T02:48:50;66.63;;;29.75;;
17818;SDS011;9034;50.284;19.310;2023-03-19T02:49:53;57.05;;;28.40;;
17818;SDS011;9034;50.284;19.310;2023-03-19T02:50:56;62.33;;;29.38;;
17818;SDS011;9034;50.284;19.310;2023-03-19T02:51:59;71.03;;;30.50;;
17818;SDS011;9034;50.284;19.310;2023-03-19T02:53:02;60.67;;;27.73;;
17818;SDS011;9034;50.284;19.310;2023-03-19T02:54:04;57.40;;;27.52;;
17818;SDS011;9034;50.284;19.310;2023-03-19T02:55:07;63.28;;;29.48;;
17818;SDS011;9034;50.284;19.310;2023-03-19T02:56:10;62.95;;;29.65;;
17818;SDS011;9034;50.284;19.310;2023-03-19T02:57:13;63.53;;;29.83;;
17818;SDS011;9034;50.284;19.310;2023-03-19T02:58:18;62.10;;;29.17;;
17818;SDS011;9034;50.284;19.310;2023-03-19T02:59:21;66.40;;;29.10;;
17818;SDS011;9034;50.284;19.310;2023-03-19T03:00:23;64.65;;;30.65;;
17818;SDS011;9034;50.284;19.310;2023-03-19T03:01:26;61.63;;;31.30;;
17818;SDS011;9034;50.284;19.310;2023-03-19T03:02:29;63.72;;;31.83;;
17818;SDS011;9034;50.284;19.310;2023-03-19T03:03:32;67.22;;;32.05;;
17818;SDS011;9034;50.284;19.310;2023-03-19T03:04:34;64.40;;;30.80;;
17818;SDS011;9034;50.284;19.310;2023-03-19T03:05:38;67.68;;;31.05;;
17818;SDS011;9034;50.284;19.310;2023-03-19T03:06:41;69.07;;;33.58;;
17818;SDS011;9034;50.284;19.310;2023-03-19T03:07:44;60.15;;;28.45;;
17818;SDS011;9034;50.284;19.310;2023-03-19T03:08:45;64.97;;;30.75;;
17818;SDS011;9034;50.284;19.310;2023-03-19T03:09:48;62.90;;;28.65;;
17818;SDS011;9034;50.284;19.310;2023-03-19T03:10:50;66.07;;;31.30;;
17818;SDS011;9034;50.284;19.310;2023-03-19T03:11:53;67.45;;;32.05;;
17818;SDS011;9034;50.284;19.310;2023-03-19T03:12:55;65.38;;;31.33;;
17818;SDS011;9034;50.284;19.310;2023-03-19T03:13:59;66.75;;;30.08;;
17818;SDS011;9034;50.284;19.310;2023-03-19T03:15:01;60.33;;;29.67;;
17818;SDS011;9034;50.284;19.310;2023-03-19T03:16:04;64.53;;;30.27;;
17818;SDS011;9034;50.284;19.310;2023-03-19T03:17:07;67.13;;;31.77;;
17818;SDS011;9034;50.284;19.310;2023-03-19T03:18:10;72.25;;;31.27;;
17818;SDS011;9034;50.284;19.310;2023-03-19T03:19:11;65.80;;;31.40;;
17818;SDS011;9034;50.284;19.310;2023-03-19T03:20:15;66.25;;;32.10;;
17818;SDS011;9034;50.284;19.310;2023-03-19T03:21:18;65.43;;;32.88;;
17818;SDS011;9034;50.284;19.310;2023-03-19T03:22:21;68.38;;;34.05;;
17818;SDS011;9034;50.284;19.310;2023-03-19T03:23:23;71.93;;;32.22;;
17818;SDS011;9034;50.284;19.310;2023-03-19T03:24:27;63.53;;;30.63;;
17818;SDS011;9034;50.284;19.310;2023-03-19T03:25:29;66.72;;;32.42;;
17818;SDS011;9034;50.284;19.310;2023-03-19T03:26:32;68.72;;;34.90;;
17818;SDS011;9034;50.284;19.310;2023-03-19T03:27:35;67.97;;;32.22;;
17818;SDS011;9034;50.284;19.310;2023-03-19T03:28:39;65.65;;;31.83;;
17818;SDS011;9034;50.284;19.310;2023-03-19T03:29:43;65.72;;;30.85;;
17818;SDS011;9034;50.284;19.310;2023-03-19T03:30:46;59.28;;;31.10;;
17818;SDS011;9034;50.284;19.310;2023-03-19T03:31:49;71.60;;;32.53;;
17818;SDS011;9034;50.284;19.310;2023-03-19T03:32:52;64.70;;;32.55;;
17818;SDS011;9034;50.284;19.310;2023-03-19T03:33:54;66.60;;;32.83;;
17818;SDS011;9034;50.284;19.310;2023-03-19T03:34:57;64.63;;;30.48;;
17818;SDS011;9034;50.284;19.310;2023-03-19T03:35:59;65.57;;;32.30;;
17818;SDS011;9034;50.284;19.310;2023-03-19T03:37:02;53.88;;;29.17;;
17818;SDS011;9034;50.284;19.310;2023-03-19T03:38:04;58.83;;;29.23;;
17818;SDS011;9034;50.284;19.310;2023-03-19T03:39:07;61.63;;;30.25;;
17818;SDS011;9034;50.284;19.310;2023-03-19T03:40:10;58.03;;;28.20;;
17818;SDS011;9034;50.284;19.310;2023-03-19T03:41:14;59.53;;;29.02;;
17818;SDS011;9034;50.284;19.310;2023-03-19T03:42:16;59.88;;;29.17;;
17818;SDS011;9034;50.284;19.310;2023-03-19T03:43:19;58.67;;;28.45;;
17818;SDS011;9034;50.284;19.310;2023-03-19T03:44:22;57.85;;;27.80;;
17818;SDS011;9034;50.284;19.310;2023-03-19T03:45:26;63.00;;;29.38;;
17818;SDS011;9034;50.284;19.310;2023-03-19T03:46:28;51.42;;;26.02;;
17818;SDS011;9034;50.284;19.310;2023-03-19T03:47:31;61.75;;;28.85;;
17818;SDS011;9034;50.284;19.310;2023-03-19T03:48:33;59.85;;;29.05;;
17818;SDS011;9034;50.284;19.310;2023-03-19T03:49:37;48.53;;;24.90;;
17818;SDS011;9034;50.284;19.310;2023-03-19T03:50:38;56.60;;;27.95;;
17818;SDS011;9034;50.284;19.310;2023-03-19T03:51:45;53.38;;;27.40;;
17818;SDS011;9034;50.284;19.310;2023-03-19T03:52:47;53.33;;;28.00;;
17818;SDS011;9034;50.284;19.310;2023-03-19T03:53:50;60.60;;;27.60;;
17818;SDS011;9034;50.284;19.310;2023-03-19T03:54:52;55.03;;;28.25;;
17818;SDS011;9034;50.284;19.310;2023-03-19T03:55:55;57.63;;;27.52;;
17818;SDS011;9034;50.284;19.310;2023-03-19T03:56:59;59.92;;;27.40;;
17818;SDS011;9034;50.284;19.310;2023-03-19T03:58:04;55.75;;;27.25;;
17818;SDS011;9034;50.284;19.310;2023-03-19T03:59:07;52.42;;;26.85;;
17818;SDS011;9034;50.284;19.310;2023-03-19T04:00:10;53.15;;;27.05;;
17818;SDS011;9034;50.284;19.310;2023-03-19T04:01:19;48.88;;;25.05;;
17818;SDS011;9034;50.284;19.310;2023-03-19T04:02:27;54.15;;;27.45;;
17818;SDS011;9034;50.284;19.310;2023-03-19T04:03:29;45.05;;;23.58;;
17818;SDS011;9034;50.284;19.310;2023-03-19T04:04:32;53.08;;;25.85;;
17818;SDS011;9034;50.284;19.310;2023-03-19T04:05:34;52.13;;;25.85;;
17818;SDS011;9034;50.284;19.310;2023-03-19T04:06:38;57.75;;;27.08;;
17818;SDS011;9034;50.284;19.310;2023-03-19T04:08:01;56.67;;;27.30;;
17818;SDS011;9034;50.284;19.310;2023-03-19T04:09:04;57.38;;;26.55;;
17818;SDS011;9034;50.284;19.310;2023-03-19T04:10:09;48.13;;;25.63;;
17818;SDS011;9034;50.284;19.310;2023-03-19T04:11:13;50.53;;;25.45;;
17818;SDS011;9034;50.284;19.310;2023-03-19T04:12:16;57.03;;;26.38;;
17818;SDS011;9034;50.284;19.310;2023-03-19T04:13:21;50.33;;;23.95;;
17818;SDS011;9034;50.284;19.310;2023-03-19T04:14:23;44.72;;;24.55;;
17818;SDS011;9034;50.284;19.310;2023-03-19T04:15:27;48.90;;;23.77;;
17818;SDS011;9034;50.284;19.310;2023-03-19T04:16:32;51.90;;;25.85;;
17818;SDS011;9034;50.284;19.310;2023-03-19T04:17:35;51.75;;;24.00;;
17818;SDS011;9034;50.284;19.310;2023-03-19T04:18:37;49.75;;;24.98;;
17818;SDS011;9034;50.284;19.310;2023-03-19T04:19:40;49.05;;;23.13;;
17818;SDS011;9034;50.284;19.310;2023-03-19T04:20:43;47.88;;;24.00;;
17818;SDS011;9034;50.284;19.310;2023-03-19T04:21:47;43.35;;;22.45;;
17818;SDS011;9034;50.284;19.310;2023-03-19T04:22:49;45.47;;;23.67;;
17818;SDS011;9034;50.284;19.310;2023-03-19T04:23:52;45.15;;;22.75;;
17818;SDS011;9034;50.284;19.310;2023-03-19T04:24:54;42.53;;;22.70;;
17818;SDS011;9034;50.284;19.310;2023-03-19T04:25:57;44.63;;;22.42;;
17818;SDS011;9034;50.284;19.310;2023-03-19T04:26:59;46.03;;;22.83;;
17818;SDS011;9034;50.284;19.310;2023-03-19T04:28:03;46.05;;;22.02;;
17818;SDS011;9034;50.284;19.310;2023-03-19T04:29:05;47.25;;;22.55;;
17818;SDS011;9034;50.284;19.310;2023-03-19T04:30:09;45.55;;;22.13;;
17818;SDS011;9034;50.284;19.310;2023-03-19T04:31:12;41.95;;;21.50;;
17818;SDS011;9034;50.284;19.310;2023-03-19T04:32:19;43.28;;;21.85;;
17818;SDS011;9034;50.284;19.310;2023-03-19T04:33:21;47.00;;;21.67;;
17818;SDS011;9034;50.284;19.310;2023-03-19T04:34:24;40.15;;;21.10;;
17818;SDS011;9034;50.284;19.310;2023-03-19T04:35:26;43.60;;;20.50;;
17818;SDS011;9034;50.284;19.310;2023-03-19T04:36:29;40.65;;;22.10;;
17818;SDS011;9034;50.284;19.310;2023-03-19T04:37:32;43.83;;;20.63;;
17818;SDS011;9034;50.284;19.310;2023-03-19T04:38:34;41.83;;;19.00;;
17818;SDS011;9034;50.284;19.310;2023-03-19T04:39:37;40.60;;;20.20;;
17818;SDS011;9034;50.284;19.310;2023-03-19T04:40:39;41.55;;;22.13;;
17818;SDS011;9034;50.284;19.310;2023-03-19T04:41:43;42.55;;;21.40;;
17818;SDS011;9034;50.284;19.310;2023-03-19T04:43:12;40.08;;;19.67;;
17818;SDS011;9034;50.284;19.310;2023-03-19T04:44:15;41.50;;;20.88;;
17818;SDS011;9034;50.284;19.310;2023-03-19T04:45:18;42.53;;;20.13;;
17818;SDS011;9034;50.284;19.310;2023-03-19T04:46:21;39.65;;;19.98;;
17818;SDS011;9034;50.284;19.310;2023-03-19T04:47:24;42.25;;;19.55;;
17818;SDS011;9034;50.284;19.310;2023-03-19T04:48:31;42.85;;;20.13;;
17818;SDS011;9034;50.284;19.310;2023-03-19T04:49:34;40.38;;;20.40;;
17818;SDS011;9034;50.284;19.310;2023-03-19T04:50:37;39.95;;;20.40;;
17818;SDS011;9034;50.284;19.310;2023-03-19T04:51:39;37.35;;;19.58;;
17818;SDS011;9034;50.284;19.310;2023-03-19T04:52:43;33.80;;;18.55;;
17818;SDS011;9034;50.284;19.310;2023-03-19T04:53:45;39.22;;;19.63;;
17818;SDS011;9034;50.284;19.310;2023-03-19T04:54:49;38.22;;;19.60;;
17818;SDS011;9034;50.284;19.310;2023-03-19T04:55:52;34.35;;;18.25;;
17818;SDS011;9034;50.284;19.310;2023-03-19T04:56:54;37.25;;;18.67;;
17818;SDS011;9034;50.284;19.310;2023-03-19T04:57:59;38.35;;;20.40;;
17818;SDS011;9034;50.284;19.310;2023-03-19T04:59:04;34.47;;;19.15;;
17818;SDS011;9034;50.284;19.310;2023-03-19T05:00:07;37.95;;;19.67;;
17818;SDS011;9034;50.284;19.310;2023-03-19T05:01:13;38.22;;;19.40;;
17818;SDS011;9034;50.284;19.310;2023-03-19T05:02:32;37.13;;;18.90;;
17818;SDS011;9034;50.284;19.310;2023-03-19T05:03:36;34.28;;;18.58;;
17818;SDS011;9034;50.284;19.310;2023-03-19T05:04:38;40.88;;;20.17;;
17818;SDS011;9034;50.284;19.310;2023-03-19T05:05:45;37.58;;;18.85;;
17818;SDS011;9034;50.284;19.310;2023-03-19T05:06:47;42.70;;;20.80;;
17818;SDS011;9034;50.284;19.310;2023-03-19T05:07:50;39.33;;;19.77;;
17818;SDS011;9034;50.284;19.310;2023-03-19T05:08:52;38.88;;;19.95;;
17818;SDS011;9034;50.284;19.310;2023-03-19T05:09:57;37.95;;;19.83;;
17818;SDS011;9034;50.284;19.310;2023-03-19T05:10:59;36.80;;;18.38;;
17818;SDS011;9034;50.284;19.310;2023-03-19T05:12:08;39.33;;;21.10;;
17818;SDS011;9034;50.284;19.310;2023-03-19T05:13:16;39.42;;;19.60;;
17818;SDS011;9034;50.284;19.310;2023-03-19T05:14:24;46.38;;;19.63;;
17818;SDS011;9034;50.284;19.310;2023-03-19T05:15:36;34.40;;;18.52;;
17818;SDS011;9034;50.284;19.310;2023-03-19T05:16:41;41.42;;;20.52;;
17818;SDS011;9034;50.284;19.310;2023-03-19T05:17:44;41.83;;;20.23;;
17818;SDS011;9034;50.284;19.310;2023-03-19T05:18:51;37.05;;;19.17;;
17818;SDS011;9034;50.284;19.310;2023-03-19T05:19:54;37.45;;;18.63;;
17818;SDS011;9034;50.284;19.310;2023-03-19T05:20:56;34.42;;;18.42;;
17818;SDS011;9034;50.284;19.310;2023-03-19T05:22:00;36.83;;;18.85;;
17818;SDS011;9034;50.284;19.310;2023-03-19T05:23:02;35.78;;;19.13;;
17818;SDS011;9034;50.284;19.310;2023-03-19T05:24:12;38.03;;;17.98;;
17818;SDS011;9034;50.284;19.310;2023-03-19T05:25:15;37.50;;;19.77;;
17818;SDS011;9034;50.284;19.310;2023-03-19T05:26:19;36.90;;;19.35;;
17818;SDS011;9034;50.284;19.310;2023-03-19T05:27:40;41.13;;;21.35;;
17818;SDS011;9034;50.284;19.310;2023-03-19T05:28:45;38.28;;;20.17;;
17818;SDS011;9034;50.284;19.310;2023-03-19T05:29:52;43.47;;;22.85;;
17818;SDS011;9034;50.284;19.310;2023-03-19T05:31:10;41.38;;;21.88;;
17818;SDS011;9034;50.284;19.310;2023-03-19T05:32:18;39.30;;;22.90;;
17818;SDS011;9034;50.284;19.310;2023-03-19T05:33:22;42.40;;;23.77;;
17818;SDS011;9034;50.284;19.310;2023-03-19T05:34:27;39.22;;;22.08;;
17818;SDS011;9034;50.284;19.310;2023-03-19T05:35:29;40.78;;;23.00;;
17818;SDS011;9034;50.284;19.310;2023-03-19T05:36:34;34.95;;;21.00;;
17818;SDS011;9034;50.284;19.310;2023-03-19T05:37:45;41.25;;;22.08;;
17818;SDS011;9034;50.284;19.310;2023-03-19T05:38:48;40.22;;;22.60;;
17818;SDS011;9034;50.284;19.310;2023-03-19T05:39:57;40.92;;;22.88;;
17818;SDS011;9034;50.284;19.310;2023-03-19T05:41:02;34.53;;;22.13;;
17818;SDS011;9034;50.284;19.310;2023-03-19T05:42:14;36.22;;;23.95;;
17818;SDS011;9034;50.284;19.310;2023-03-19T05:43:17;40.58;;;24.15;;
17818;SDS011;9034;50.284;19.310;2023-03-19T05:44:19;36.95;;;24.73;;
17818;SDS011;9034;50.284;19.310;2023-03-19T05:45:32;36.45;;;23.67;;
17818;SDS011;9034;50.284;19.310;2023-03-19T05:46:41;36.75;;;23.75;;
17818;SDS011;9034;50.284;19.310;2023-03-19T05:47:45;35.88;;;22.90;;
17818;SDS011;9034;50.284;19.310;2023-03-19T05:48:49;37.80;;;23.00;;
17818;SDS011;9034;50.284;19.310;2023-03-19T05:49:53;36.15;;;22.85;;
17818;SDS011;9034;50.284;19.310;2023-03-19T05:50:55;37.50;;;23.17;;
17818;SDS011;9034;50.284;19.310;2023-03-19T05:52:04;38.55;;;24.02;;
17818;SDS011;9034;50.284;19.310;2023-03-19T05:53:07;37.42;;;23.35;;
17818;SDS011;9034;50.284;19.310;2023-03-19T05:54:13;33.53;;;21.90;;
17818;SDS011;9034;50.284;19.310;2023-03-19T05:55:36;36.67;;;24.02;;
17818;SDS011;9034;50.284;19.310;2023-03-19T05:56:42;38.25;;;24.20;;
17818;SDS011;9034;50.284;19.310;2023-03-19T05:58:02;38.30;;;23.33;;
17818;SDS011;9034;50.284;19.310;2023-03-19T05:59:05;38.78;;;23.35;;
17818;SDS011;9034;50.284;19.310;2023-03-19T06:00:12;36.53;;;22.55;;
17818;SDS011;9034;50.284;19.310;2023-03-19T06:01:16;34.92;;;22.17;;
17818;SDS011;9034;50.284;19.310;2023-03-19T06:02:18;34.47;;;21.95;;
17818;SDS011;9034;50.284;19.310;2023-03-19T06:03:27;34.78;;;20.40;;
17818;SDS011;9034;50.284;19.310;2023-03-19T06:04:33;34.20;;;19.95;;
17818;SDS011;9034;50.284;19.310;2023-03-19T06:05:36;34.95;;;18.80;;
17818;SDS011;9034;50.284;19.310;2023-03-19T06:06:52;32.00;;;19.13;;
17818;SDS011;9034;50.284;19.310;2023-03-19T06:07:55;30.92;;;17.88;;
17818;SDS011;9034;50.284;19.310;2023-03-19T06:09:08;30.48;;;18.13;;
17818;SDS011;9034;50.284;19.310;2023-03-19T06:10:15;31.95;;;18.80;;
17818;SDS011;9034;50.284;19.310;2023-03-19T06:11:17;29.63;;;17.30;;
17818;SDS011;9034;50.284;19.310;2023-03-19T06:12:26;28.23;;;16.73;;
17818;SDS011;9034;50.284;19.310;2023-03-19T06:13:48;27.33;;;16.17;;
17818;SDS011;9034;50.284;19.310;2023-03-19T06:14:51;27.23;;;16.55;;
17818;SDS011;9034;50.284;19.310;2023-03-19T06:16:28;24.70;;;16.10;;
17818;SDS011;9034;50.284;19.310;2023-03-19T06:17:33;31.33;;;16.73;;
17818;SDS011;9034;50.284;19.310;2023-03-19T06:18:40;26.70;;;14.93;;
17818;SDS011;9034;50.284;19.310;2023-03-19T06:19:47;24.88;;;14.88;;